createdAt,value
2018-05-06T00:00:15.429Z,11.50
2018-05-06T00:02:41.545Z,11.40
2018-05-06T00:05:08.542Z,11.30
2018-05-06T00:07:34.678Z,11.30
2018-05-06T00:10:00.844Z,11.20
2018-05-06T00:12:26.989Z,11.20
2018-05-06T00:14:53.078Z,11.10
2018-05-06T00:17:19.269Z,11.10
2018-05-06T00:19:45.377Z,11.10
2018-05-06T00:22:11.520Z,11.00
2018-05-06T00:24:37.624Z,11.00
2018-05-06T00:27:03.741Z,10.90
2018-05-06T00:29:29.846Z,10.80
2018-05-06T00:31:56.051Z,10.60
2018-05-06T00:34:22.289Z,10.60
2018-05-06T00:36:48.669Z,10.60
2018-05-06T00:39:14.737Z,10.60
2018-05-06T00:41:40.820Z,10.50
2018-05-06T00:44:06.901Z,10.50
2018-05-06T00:46:32.972Z,10.50
2018-05-06T00:48:59.869Z,10.50
2018-05-06T00:51:25.946Z,10.50
2018-05-06T00:53:52.365Z,10.50
2018-05-06T00:56:18.569Z,10.50
2018-05-06T00:58:44.653Z,10.40
2018-05-06T01:01:10.721Z,10.40
2018-05-06T01:03:36.905Z,10.40
2018-05-06T01:06:02.992Z,10.40
2018-05-06T01:08:29.081Z,10.40
2018-05-06T01:10:55.179Z,10.40
2018-05-06T01:13:22.327Z,10.50
2018-05-06T01:15:48.433Z,10.40
2018-05-06T01:18:15.953Z,10.50
2018-05-06T01:20:42.829Z,10.50
2018-05-06T01:23:09.116Z,10.50
2018-05-06T01:25:35.316Z,10.50
2018-05-06T01:28:01.417Z,10.50
2018-05-06T01:30:27.513Z,10.40
2018-05-06T01:32:53.626Z,10.30
2018-05-06T01:35:19.708Z,10.30
2018-05-06T01:37:45.932Z,10.30
2018-05-06T01:40:12.113Z,10.20
2018-05-06T01:42:38.231Z,10.20
2018-05-06T01:45:04.408Z,10.10
2018-05-06T01:47:30.544Z,10.10
2018-05-06T01:49:57.372Z,10.10
2018-05-06T01:52:23.593Z,10.00
2018-05-06T01:54:49.693Z,10.10
2018-05-06T01:57:15.882Z,10.10
2018-05-06T01:59:42.064Z,10.10
2018-05-06T02:02:08.984Z,10.10
2018-05-06T02:04:35.119Z,10.00
2018-05-06T02:07:01.180Z,10.00
2018-05-06T02:09:27.270Z,10.10
2018-05-06T02:11:53.349Z,10.20
2018-05-06T02:14:19.508Z,10.20
2018-05-06T02:16:46.337Z,9.90
2018-05-06T02:19:12.507Z,9.90
2018-05-06T02:21:39.339Z,9.70
2018-05-06T02:24:05.416Z,9.70
2018-05-06T02:26:31.496Z,9.60
2018-05-06T02:28:57.577Z,9.50
2018-05-06T02:31:24.380Z,9.30
2018-05-06T02:33:50.461Z,9.30
2018-05-06T02:36:17.340Z,9.00
2018-05-06T02:38:43.500Z,9.00
2018-05-06T02:41:09.565Z,8.90
2018-05-06T02:43:35.640Z,8.80
2018-05-06T02:46:01.785Z,8.70
2018-05-06T02:48:27.889Z,8.60
2018-05-06T02:50:54.065Z,8.50
2018-05-06T02:53:20.162Z,8.40
2018-05-06T02:55:46.284Z,8.40
2018-05-06T02:58:12.351Z,8.30
2018-05-06T03:00:39.220Z,8.20
2018-05-06T03:03:06.108Z,8.10
2018-05-06T03:05:32.176Z,8.10
2018-05-06T03:07:58.272Z,8.00
2018-05-06T03:10:24.397Z,8.00
2018-05-06T03:12:50.469Z,7.90
2018-05-06T03:15:16.537Z,7.90
2018-05-06T03:17:42.753Z,7.90
2018-05-06T03:20:08.820Z,7.90
2018-05-06T03:22:34.890Z,7.80
2018-05-06T03:25:01.037Z,7.70
2018-05-06T03:27:27.095Z,7.60
2018-05-06T03:29:53.232Z,7.60
2018-05-06T03:32:19.303Z,7.50
2018-05-06T03:34:45.425Z,7.40
2018-05-06T03:37:11.520Z,7.40
2018-05-06T03:39:37.604Z,7.40
2018-05-06T03:42:03.708Z,7.30
2018-05-06T03:44:29.813Z,7.30
2018-05-06T03:46:56.641Z,7.20
2018-05-06T03:49:22.760Z,7.10
2018-05-06T03:51:48.910Z,7.10
2018-05-06T03:54:15.015Z,7.10
2018-05-06T03:57:02.144Z,7.00
2018-05-06T03:59:40.507Z,7.00
2018-05-06T04:05:25.108Z,7.00
2018-05-06T04:07:51.189Z,7.00
2018-05-06T04:10:17.988Z,6.90
2018-05-06T04:12:44.060Z,6.90
2018-05-06T04:15:10.120Z,7.00
2018-05-06T04:17:37.045Z,6.90
2018-05-06T04:20:03.151Z,6.90
2018-05-06T04:22:29.231Z,6.90
2018-05-06T04:24:55.332Z,6.90
2018-05-06T04:27:21.423Z,6.90
2018-05-06T04:29:47.499Z,6.90
2018-05-06T04:32:13.636Z,7.00
2018-05-06T04:34:39.746Z,7.00
2018-05-06T04:37:06.563Z,6.80
2018-05-06T04:39:32.657Z,6.80
2018-05-06T04:41:58.722Z,6.70
2018-05-06T04:44:24.845Z,6.70
2018-05-06T04:46:51.665Z,6.70
2018-05-06T04:49:18.499Z,6.70
2018-05-06T04:51:44.574Z,6.70
2018-05-06T04:54:10.665Z,6.80
2018-05-06T04:56:36.751Z,6.80
2018-05-06T04:59:02.920Z,6.90
2018-05-06T05:01:29.026Z,7.00
2018-05-06T05:03:55.137Z,7.10
2018-05-06T05:06:21.205Z,7.30
2018-05-06T05:08:47.296Z,7.40
2018-05-06T05:11:13.378Z,7.70
2018-05-06T05:13:39.477Z,7.90
2018-05-06T05:16:05.673Z,8.20
2018-05-06T05:18:31.736Z,8.50
2018-05-06T05:20:57.939Z,8.60
2018-05-06T05:23:23.909Z,8.80
2018-05-06T05:25:50.100Z,8.90
2018-05-06T05:28:16.936Z,9.10
2018-05-06T05:30:42.989Z,9.10
2018-05-06T05:33:09.797Z,9.40
2018-05-06T05:35:35.863Z,9.40
2018-05-06T05:38:01.935Z,9.50
2018-05-06T05:40:28.032Z,9.70
2018-05-06T05:42:54.225Z,9.70
2018-05-06T05:45:20.323Z,9.90
2018-05-06T05:47:47.168Z,10.10
2018-05-06T05:50:13.244Z,10.10
2018-05-06T05:52:39.324Z,10.20
2018-05-06T05:55:05.396Z,10.30
2018-05-06T05:57:32.228Z,10.60
2018-05-06T05:59:58.353Z,10.60
2018-05-06T06:02:24.416Z,10.80
2018-05-06T06:04:51.256Z,11.00
2018-05-06T06:07:17.364Z,10.90
2018-05-06T06:09:43.438Z,11.10
2018-05-06T06:12:09.524Z,11.30
2018-05-06T06:14:35.595Z,11.40
2018-05-06T06:17:01.657Z,11.60
2018-05-06T06:19:27.737Z,11.70
2018-05-06T06:21:53.804Z,11.90
2018-05-06T06:24:19.892Z,12.00
2018-05-06T06:26:45.963Z,12.20
2018-05-06T06:29:12.020Z,12.30
2018-05-06T06:31:38.111Z,12.30
2018-05-06T06:34:04.164Z,12.40
2018-05-06T06:36:30.281Z,12.40
2018-05-06T06:38:56.378Z,12.60
2018-05-06T06:41:22.473Z,12.60
2018-05-06T06:43:48.568Z,12.70
2018-05-06T06:46:14.656Z,12.80
2018-05-06T06:48:40.780Z,12.80
2018-05-06T06:51:06.841Z,12.90
2018-05-06T06:53:32.896Z,13.00
2018-05-06T06:55:59.008Z,13.10
2018-05-06T06:58:25.113Z,13.30
2018-05-06T07:00:51.948Z,13.50
2018-05-06T07:03:18.042Z,13.50
2018-05-06T07:05:44.104Z,13.60
2018-05-06T07:08:10.936Z,13.70
2018-05-06T07:10:37.018Z,13.70
2018-05-06T07:13:03.204Z,13.80
2018-05-06T07:15:29.288Z,13.90
2018-05-06T07:17:55.372Z,14.10
2018-05-06T07:20:21.466Z,14.20
2018-05-06T07:22:47.561Z,14.30
2018-05-06T07:25:13.644Z,14.30
2018-05-06T07:27:39.842Z,14.40
2018-05-06T07:30:05.925Z,14.50
2018-05-06T07:32:32.009Z,14.60
2018-05-06T07:34:58.092Z,14.60
2018-05-06T07:37:24.180Z,14.80
2018-05-06T07:39:50.436Z,14.80
2018-05-06T07:42:16.552Z,14.90
2018-05-06T07:44:42.628Z,15.00
2018-05-06T07:47:08.712Z,15.00
2018-05-06T07:49:35.533Z,15.00
2018-05-06T07:52:01.602Z,15.00
2018-05-06T07:54:28.420Z,15.10
2018-05-06T07:56:54.520Z,15.10
2018-05-06T07:59:20.596Z,15.40
2018-05-06T08:01:46.656Z,15.40
2018-05-06T08:04:12.728Z,15.40
2018-05-06T08:06:38.817Z,15.40
2018-05-06T08:09:04.891Z,15.50
2018-05-06T08:11:31.719Z,15.80
2018-05-06T08:13:57.796Z,15.80
2018-05-06T08:16:23.981Z,15.90
2018-05-06T08:18:49.989Z,15.90
2018-05-06T08:21:16.125Z,16.10
2018-05-06T08:23:42.192Z,16.10
2018-05-06T08:26:08.282Z,16.20
2018-05-06T08:28:34.362Z,16.20
2018-05-06T08:31:00.436Z,16.20
2018-05-06T08:33:26.505Z,16.40
2018-05-06T08:35:52.576Z,16.50
2018-05-06T08:38:18.636Z,16.60
2018-05-06T08:40:44.716Z,16.60
2018-05-06T08:43:10.776Z,16.60
2018-05-06T08:45:36.852Z,16.60
2018-05-06T08:48:02.932Z,16.80
2018-05-06T08:50:28.988Z,17.00
2018-05-06T08:52:55.061Z,17.10
2018-05-06T08:55:21.133Z,17.10
2018-05-06T08:57:47.203Z,17.00
2018-05-06T09:00:13.296Z,17.00
2018-05-06T09:02:40.112Z,17.40
2018-05-06T09:05:06.172Z,17.40
2018-05-06T09:07:32.254Z,17.50
2018-05-06T09:09:58.324Z,17.60
2018-05-06T09:12:24.399Z,17.80
2018-05-06T09:14:50.473Z,17.90
2018-05-06T09:17:16.552Z,18.00
2018-05-06T09:19:42.792Z,18.10
2018-05-06T09:22:08.868Z,18.20
2018-05-06T09:24:34.925Z,18.20
2018-05-06T09:27:00.992Z,18.30
2018-05-06T09:29:27.060Z,18.40
2018-05-06T09:31:53.892Z,18.50
2018-05-06T09:34:20.132Z,18.50
2018-05-06T09:36:46.213Z,18.60
2018-05-06T09:39:13.033Z,18.70
2018-05-06T09:41:39.112Z,18.70
2018-05-06T09:44:05.183Z,18.70
2018-05-06T09:46:31.286Z,18.70
2018-05-06T09:48:57.382Z,18.90
2018-05-06T09:51:23.444Z,19.10
2018-05-06T09:53:50.300Z,19.00
2018-05-06T09:56:17.120Z,18.90
2018-05-06T09:58:43.230Z,18.90
2018-05-06T10:01:09.304Z,19.10
2018-05-06T10:03:35.388Z,19.30
2018-05-06T10:06:01.453Z,19.50
2018-05-06T10:08:27.543Z,19.70
2018-05-06T10:10:54.374Z,19.80
2018-05-06T10:13:20.473Z,19.70
2018-05-06T10:15:46.651Z,19.90
2018-05-06T10:18:12.673Z,19.70
2018-05-06T10:20:38.775Z,19.70
2018-05-06T10:23:04.836Z,19.80
2018-05-06T10:25:30.931Z,19.90
2018-05-06T10:27:57.753Z,19.90
2018-05-06T10:30:23.828Z,19.90
2018-05-06T10:32:50.636Z,20.10
2018-05-06T10:35:16.728Z,20.00
2018-05-06T10:37:42.800Z,19.90
2018-05-06T10:40:08.886Z,19.90
2018-05-06T10:42:35.696Z,20.10
2018-05-06T10:45:01.781Z,20.00
2018-05-06T10:47:28.601Z,20.50
2018-05-06T10:49:54.743Z,20.40
2018-05-06T10:52:20.817Z,20.70
2018-05-06T10:54:47.659Z,20.70
2018-05-06T10:57:13.741Z,20.70
2018-05-06T10:59:39.826Z,20.80
2018-05-06T11:02:05.896Z,20.90
2018-05-06T11:04:32.000Z,20.90
2018-05-06T11:06:58.069Z,21.00
2018-05-06T11:09:24.165Z,21.10
2018-05-06T11:11:50.236Z,21.10
2018-05-06T11:14:17.057Z,20.80
2018-05-06T11:16:43.145Z,20.80
2018-05-06T11:19:09.227Z,21.00
2018-05-06T11:21:35.307Z,21.30
2018-05-06T11:24:01.365Z,21.60
2018-05-06T11:26:27.444Z,21.60
2018-05-06T11:28:53.532Z,21.50
2018-05-06T11:31:19.616Z,21.70
2018-05-06T11:33:45.757Z,21.80
2018-05-06T11:36:12.516Z,21.90
2018-05-06T11:38:38.595Z,21.80
2018-05-06T11:41:04.734Z,22.00
2018-05-06T11:43:30.778Z,22.10
2018-05-06T11:45:56.863Z,22.10
2018-05-06T11:48:22.929Z,22.20
2018-05-06T11:50:49.005Z,22.30
2018-05-06T11:53:15.068Z,22.30
2018-05-06T11:55:41.150Z,22.30
2018-05-06T11:58:07.211Z,22.30
2018-05-06T12:00:33.365Z,22.40
2018-05-06T12:03:00.112Z,22.70
2018-05-06T12:05:26.175Z,22.70
2018-05-06T12:07:52.276Z,22.90
2018-05-06T12:10:18.348Z,23.00
2018-05-06T12:12:44.428Z,22.90
2018-05-06T12:15:10.569Z,23.00
2018-05-06T12:17:36.652Z,23.20
2018-05-06T12:20:02.732Z,23.30
2018-05-06T12:22:29.553Z,23.50
2018-05-06T12:24:55.626Z,23.50
2018-05-06T12:27:21.699Z,23.60
2018-05-06T12:29:47.769Z,23.50
2018-05-06T12:32:13.840Z,23.40
2018-05-06T12:34:39.897Z,23.50
2018-05-06T12:37:05.968Z,23.70
2018-05-06T12:39:32.038Z,23.60
2018-05-06T12:41:58.868Z,23.60
2018-05-06T12:44:24.924Z,23.50
2018-05-06T12:46:50.991Z,23.40
2018-05-06T12:49:17.053Z,23.40
2018-05-06T12:51:43.113Z,23.70
2018-05-06T12:54:09.197Z,23.90
2018-05-06T12:56:36.004Z,24.30
2018-05-06T12:59:02.093Z,24.30
2018-05-06T13:01:28.157Z,24.50
2018-05-06T13:03:54.233Z,24.70
2018-05-06T13:06:20.303Z,24.90
2018-05-06T13:08:46.396Z,24.90
2018-05-06T13:11:12.456Z,24.90
2018-05-06T13:13:39.272Z,24.70
2018-05-06T13:16:05.351Z,24.70
2018-05-06T13:18:32.173Z,25.00
2018-05-06T13:20:58.252Z,25.00
2018-05-06T13:23:25.061Z,25.50
2018-05-06T13:25:51.140Z,25.50
2018-05-06T13:28:17.980Z,25.30
2018-05-06T13:30:44.073Z,25.30
2018-05-06T13:33:10.900Z,26.00
2018-05-06T13:35:36.979Z,26.00
2018-05-06T13:38:03.084Z,27.30
2018-05-06T13:40:29.172Z,28.40
2018-05-06T13:42:55.245Z,29.30
2018-05-06T13:45:22.102Z,29.70
2018-05-06T13:47:48.208Z,29.70
2018-05-06T13:50:14.326Z,30.10
2018-05-06T13:52:40.385Z,30.20
2018-05-06T13:55:06.472Z,30.30
2018-05-06T13:57:32.572Z,30.90
2018-05-06T13:59:58.668Z,31.80
2018-05-06T14:02:24.730Z,32.10
2018-05-06T14:04:50.821Z,32.10
2018-05-06T14:07:16.881Z,32.20
2018-05-06T14:09:42.960Z,32.60
2018-05-06T14:12:09.025Z,32.90
2018-05-06T14:14:35.092Z,32.60
2018-05-06T14:17:01.181Z,32.80
2018-05-06T14:19:28.008Z,33.20
2018-05-06T14:21:54.077Z,33.20
2018-05-06T14:24:20.880Z,33.30
2018-05-06T14:26:46.971Z,33.30
2018-05-06T14:29:13.828Z,33.40
2018-05-06T14:31:40.633Z,33.60
2018-05-06T14:34:06.683Z,33.50
2018-05-06T14:36:32.764Z,34.00
2018-05-06T14:38:58.833Z,33.30
2018-05-06T14:41:24.899Z,33.70
2018-05-06T14:43:50.956Z,33.80
2018-05-06T14:46:30.000Z,34.80
2018-05-06T14:48:56.057Z,34.80
2018-05-06T14:51:22.117Z,35.00
2018-05-06T14:53:48.198Z,34.50
2018-05-06T14:56:14.256Z,34.40
2018-05-06T14:58:41.064Z,35.30
2018-05-06T15:01:07.124Z,35.30
2018-05-06T15:03:33.208Z,35.40
2018-05-06T15:05:59.281Z,34.50
2018-05-06T15:08:25.348Z,34.80
2018-05-06T15:10:51.424Z,34.50
2018-05-06T15:13:17.517Z,34.90
2018-05-06T15:15:43.621Z,34.70
2018-05-06T15:18:09.669Z,34.50
2018-05-06T15:20:35.720Z,34.30
2018-05-06T15:23:01.790Z,34.10
2018-05-06T15:25:27.847Z,34.50
2018-05-06T15:27:53.930Z,34.40
2018-05-06T15:30:19.984Z,35.00
2018-05-06T15:32:46.060Z,34.90
2018-05-06T15:35:12.125Z,34.20
2018-05-06T15:37:38.172Z,33.70
2018-05-06T15:40:04.238Z,33.60
2018-05-06T15:42:31.020Z,33.60
2018-05-06T15:44:57.105Z,33.60
2018-05-06T15:47:23.181Z,34.00
2018-05-06T15:49:50.000Z,35.10
2018-05-06T15:52:16.078Z,35.10
2018-05-06T15:54:42.144Z,34.10
2018-05-06T15:57:08.204Z,34.20
2018-05-06T15:59:34.276Z,34.00
2018-05-06T16:02:12.211Z,32.20
2018-05-06T16:04:38.281Z,32.20
2018-05-06T16:07:04.336Z,32.00
2018-05-06T16:09:30.411Z,32.30
2018-05-06T16:11:56.538Z,32.90
2018-05-06T16:14:23.345Z,33.00
2018-05-06T16:16:49.400Z,33.00
2018-05-06T16:19:15.496Z,33.20
2018-05-06T16:21:41.570Z,32.90
2018-05-06T16:24:07.639Z,33.00
2018-05-06T16:26:34.558Z,32.90
2018-05-06T16:29:00.609Z,32.90
2018-05-06T16:31:26.668Z,32.70
2018-05-06T16:33:53.464Z,32.80
2018-05-06T16:36:19.588Z,32.80
2018-05-06T16:38:45.657Z,32.60
2018-05-06T16:41:11.745Z,32.60
2018-05-06T16:43:38.536Z,31.80
2018-05-06T16:46:04.612Z,31.80
2018-05-06T16:48:30.660Z,31.90
2018-05-06T16:50:56.732Z,31.70
2018-05-06T16:53:22.784Z,31.50
2018-05-06T16:55:48.861Z,31.60
2018-05-06T16:58:15.024Z,31.50
2018-05-06T17:00:41.833Z,31.60
2018-05-06T17:03:07.912Z,31.60
2018-05-06T17:05:34.744Z,31.90
2018-05-06T17:08:00.840Z,31.90
2018-05-06T17:10:26.925Z,32.00
2018-05-06T17:12:53.052Z,31.30
2018-05-06T17:15:19.068Z,31.00
2018-05-06T17:17:45.156Z,30.80
2018-05-06T17:20:11.988Z,30.70
2018-05-06T17:22:38.078Z,30.70
2018-05-06T17:25:04.160Z,30.80
2018-05-06T17:27:30.245Z,30.60
2018-05-06T17:29:56.313Z,30.80
2018-05-06T17:32:22.433Z,30.60
2018-05-06T17:34:48.557Z,30.20
2018-05-06T17:37:14.627Z,30.30
2018-05-06T17:39:40.700Z,30.40
2018-05-06T17:42:06.928Z,30.50
2018-05-06T17:44:32.996Z,30.60
2018-05-06T17:46:59.825Z,30.60
2018-05-06T17:49:25.952Z,30.50
2018-05-06T17:51:52.017Z,30.70
2018-05-06T17:54:18.847Z,30.00
2018-05-06T17:56:44.917Z,29.90
2018-05-06T17:59:11.744Z,29.10
2018-05-06T18:01:37.892Z,29.00
2018-05-06T18:04:04.639Z,28.60
2018-05-06T18:06:30.704Z,28.60
2018-05-06T18:08:57.584Z,27.60
2018-05-06T18:11:23.656Z,27.60
2018-05-06T18:13:49.721Z,27.30
2018-05-06T18:16:15.782Z,26.70
2018-05-06T18:18:41.857Z,26.80
2018-05-06T18:21:07.928Z,26.70
2018-05-06T18:23:34.004Z,26.20
2018-05-06T18:26:00.076Z,25.40
2018-05-06T18:28:26.184Z,24.50
2018-05-06T18:30:52.256Z,23.60
2018-05-06T18:33:18.344Z,22.90
2018-05-06T18:35:44.416Z,22.10
2018-05-06T18:38:10.508Z,21.60
2018-05-06T18:40:37.322Z,20.70
2018-05-06T18:43:03.430Z,20.70
2018-05-06T18:45:29.512Z,20.30
2018-05-06T18:47:55.601Z,20.00
2018-05-06T18:50:21.701Z,19.90
2018-05-06T18:52:47.781Z,19.70
2018-05-06T18:55:13.884Z,19.50
2018-05-06T18:57:39.953Z,19.40
2018-05-06T19:00:06.092Z,19.10
2018-05-06T19:02:32.172Z,18.90
2018-05-06T19:04:58.271Z,18.60
2018-05-06T19:07:24.412Z,18.50
2018-05-06T19:09:50.492Z,18.30
2018-05-06T19:12:16.592Z,18.20
2018-05-06T19:14:42.672Z,18.00
2018-05-06T19:17:08.805Z,18.10
2018-05-06T19:19:34.836Z,18.00
2018-05-06T19:22:00.906Z,17.90
2018-05-06T19:24:27.733Z,17.80
2018-05-06T19:26:54.659Z,17.70
2018-05-06T19:29:20.771Z,17.60
2018-05-06T19:31:47.637Z,17.40
2018-05-06T19:34:13.691Z,17.40
2018-05-06T19:36:39.748Z,17.30
2018-05-06T19:39:05.816Z,17.20
2018-05-06T19:41:31.888Z,17.20
2018-05-06T19:43:57.949Z,17.10
2018-05-06T19:46:24.353Z,16.90
2018-05-06T19:48:51.225Z,16.70
2018-05-06T19:51:17.247Z,16.70
2018-05-06T19:53:44.050Z,16.60
2018-05-06T19:56:10.121Z,16.60
2018-05-06T19:58:36.174Z,16.60
2018-05-06T20:01:03.070Z,16.60
2018-05-06T20:03:29.123Z,16.60
2018-05-06T20:05:55.212Z,16.50
2018-05-06T20:08:21.356Z,16.50
2018-05-06T20:10:47.420Z,16.60
2018-05-06T20:13:13.503Z,16.50
2018-05-06T20:15:39.672Z,16.60
2018-05-06T20:18:05.732Z,16.50
2018-05-06T20:20:31.964Z,16.40
2018-05-06T20:22:58.087Z,16.40
2018-05-06T20:25:24.304Z,16.40
2018-05-06T20:27:51.176Z,16.10
2018-05-06T20:30:17.253Z,16.10
2018-05-06T20:32:43.372Z,16.00
2018-05-06T20:35:09.517Z,15.90
2018-05-06T20:37:35.589Z,15.80
2018-05-06T20:40:01.689Z,15.70
2018-05-06T20:42:28.530Z,15.70
2018-05-06T20:44:54.612Z,15.60
2018-05-06T20:47:20.728Z,15.60
2018-05-06T20:49:46.854Z,15.60
2018-05-06T20:52:12.993Z,15.40
2018-05-06T20:54:39.064Z,15.30
2018-05-06T20:57:05.236Z,15.20
2018-05-06T20:59:32.043Z,15.00
2018-05-06T21:01:58.901Z,14.90
2018-05-06T21:04:25.009Z,14.90
2018-05-06T21:06:51.168Z,14.80
2018-05-06T21:09:17.248Z,14.80
2018-05-06T21:11:43.327Z,14.80
2018-05-06T21:14:09.455Z,14.70
2018-05-06T21:16:36.333Z,14.40
2018-05-06T21:19:02.508Z,14.40
2018-05-06T21:21:28.623Z,14.30
2018-05-06T21:23:54.696Z,14.20
2018-05-06T21:26:21.113Z,14.20
2018-05-06T21:28:47.197Z,14.10
2018-05-06T21:31:14.022Z,14.00
2018-05-06T21:33:40.228Z,14.00
2018-05-06T21:36:06.328Z,13.90
2018-05-06T21:38:33.136Z,13.80
2018-05-06T21:40:59.208Z,13.70
2018-05-06T21:43:25.448Z,13.70
2018-05-06T21:45:51.513Z,13.60
2018-05-06T21:48:17.596Z,13.50
2018-05-06T21:50:43.691Z,13.50
2018-05-06T21:53:09.777Z,13.40
2018-05-06T21:55:35.848Z,13.30
2018-05-06T21:58:02.284Z,13.20
2018-05-06T22:00:28.379Z,13.20
2018-05-06T22:02:54.495Z,13.20
2018-05-06T22:05:20.605Z,13.10
2018-05-06T22:07:46.688Z,13.10
2018-05-06T22:10:12.817Z,13.00
2018-05-06T22:12:38.906Z,12.90
2018-05-06T22:15:04.988Z,12.80
2018-05-06T22:17:31.177Z,12.80
2018-05-06T22:19:57.260Z,12.80
2018-05-06T22:22:23.351Z,12.80
2018-05-06T22:24:49.436Z,12.70
2018-05-06T22:27:15.569Z,12.70
2018-05-06T22:29:41.651Z,12.60
2018-05-06T22:32:07.735Z,12.50
2018-05-06T22:34:34.552Z,12.50
2018-05-06T22:37:00.624Z,12.40
2018-05-06T22:39:27.500Z,12.40
2018-05-06T22:41:53.562Z,12.30
2018-05-06T22:44:19.640Z,12.30
2018-05-06T22:46:45.752Z,12.30
2018-05-06T22:49:11.850Z,12.20
2018-05-06T22:51:37.919Z,12.20
2018-05-06T22:54:03.984Z,12.20
2018-05-06T22:56:30.079Z,12.20
2018-05-06T22:58:56.160Z,12.20
2018-05-06T23:01:22.234Z,12.20
2018-05-06T23:03:48.306Z,12.10
2018-05-06T23:06:14.374Z,12.10
2018-05-06T23:08:40.432Z,12.10
2018-05-06T23:11:07.246Z,12.00
2018-05-06T23:13:34.041Z,11.90
2018-05-06T23:16:00.995Z,11.80
2018-05-06T23:18:27.795Z,11.70
2018-05-06T23:20:53.940Z,11.70
2018-05-06T23:23:19.943Z,11.60
2018-05-06T23:25:46.015Z,11.60
2018-05-06T23:28:12.080Z,11.60
2018-05-06T23:30:44.356Z,11.50
2018-05-06T23:33:10.442Z,11.30
2018-05-06T23:35:36.566Z,11.20
2018-05-06T23:38:02.639Z,11.00
2018-05-06T23:40:28.724Z,10.90
2018-05-06T23:42:54.806Z,10.90
2018-05-06T23:45:20.896Z,10.70
2018-05-06T23:47:46.984Z,10.70
2018-05-06T23:50:13.084Z,10.60
2018-05-06T23:52:39.895Z,10.30
2018-05-06T23:55:05.984Z,10.30
2018-05-06T23:57:32.816Z,10.10
2018-05-06T23:59:58.892Z,10.10
